sensor_id;sensor_type;location;lat;lon;timestamp;temperature;humidity
68977;SHT31;56029;52.568;13.588;2023-07-31T00:01:45;16.54;89.23
68977;SHT31;56029;52.568;13.588;2023-07-31T00:04:11;16.58;89.50
68977;SHT31;56029;52.568;13.588;2023-07-31T00:06:36;16.54;89.98
68977;SHT31;56029;52.568;13.588;2023-07-31T00:09:02;16.49;89.61
68977;SHT31;56029;52.568;13.588;2023-07-31T00:11:27;16.47;89.32
68977;SHT31;56029;52.568;13.588;2023-07-31T00:13:53;16.44;89.37
68977;SHT31;56029;52.568;13.588;2023-07-31T00:16:19;16.40;89.77
68977;SHT31;56029;52.568;13.588;2023-07-31T00:18:45;16.33;90.09
68977;SHT31;56029;52.568;13.588;2023-07-31T00:21:11;16.31;90.03
68977;SHT31;56029;52.568;13.588;2023-07-31T00:23:36;16.17;90.15
68977;SHT31;56029;52.568;13.588;2023-07-31T00:26:02;16.13;90.22
68977;SHT31;56029;52.568;13.588;2023-07-31T00:28:27;16.10;90.48
68977;SHT31;56029;52.568;13.588;2023-07-31T00:30:54;16.08;90.44
68977;SHT31;56029;52.568;13.588;2023-07-31T00:33:19;16.10;90.68
68977;SHT31;56029;52.568;13.588;2023-07-31T00:35:45;16.05;90.55
68977;SHT31;56029;52.568;13.588;2023-07-31T00:38:10;16.05;90.46
68977;SHT31;56029;52.568;13.588;2023-07-31T00:40:36;16.02;90.90
68977;SHT31;56029;52.568;13.588;2023-07-31T00:43:03;16.02;90.60
68977;SHT31;56029;52.568;13.588;2023-07-31T00:45:29;16.00;90.64
68977;SHT31;56029;52.568;13.588;2023-07-31T00:47:55;16.02;90.29
68977;SHT31;56029;52.568;13.588;2023-07-31T00:50:23;16.08;90.24
68977;SHT31;56029;52.568;13.588;2023-07-31T00:52:49;16.12;90.47
68977;SHT31;56029;52.568;13.588;2023-07-31T00:55:15;16.08;90.69
68977;SHT31;56029;52.568;13.588;2023-07-31T00:57:41;16.10;91.04
68977;SHT31;56029;52.568;13.588;2023-07-31T01:00:07;16.05;91.07
68977;SHT31;56029;52.568;13.588;2023-07-31T01:02:33;16.09;91.44
68977;SHT31;56029;52.568;13.588;2023-07-31T01:05:00;16.10;91.21
68977;SHT31;56029;52.568;13.588;2023-07-31T01:10:11;16.10;91.48
68977;SHT31;56029;52.568;13.588;2023-07-31T01:12:39;16.12;91.74
68977;SHT31;56029;52.568;13.588;2023-07-31T01:15:07;16.10;91.89
68977;SHT31;56029;52.568;13.588;2023-07-31T01:17:36;16.16;91.45
68977;SHT31;56029;52.568;13.588;2023-07-31T01:20:04;16.20;91.21
68977;SHT31;56029;52.568;13.588;2023-07-31T01:23:08;16.20;91.32
68977;SHT31;56029;52.568;13.588;2023-07-31T01:25:56;16.17;91.69
68977;SHT31;56029;52.568;13.588;2023-07-31T01:28:29;16.23;91.61
68977;SHT31;56029;52.568;13.588;2023-07-31T01:30:58;16.21;91.82
68977;SHT31;56029;52.568;13.588;2023-07-31T01:33:25;16.26;91.80
68977;SHT31;56029;52.568;13.588;2023-07-31T01:35:52;16.20;91.85
68977;SHT31;56029;52.568;13.588;2023-07-31T01:38:20;16.21;91.96
68977;SHT31;56029;52.568;13.588;2023-07-31T01:40:51;16.21;92.43
68977;SHT31;56029;52.568;13.588;2023-07-31T01:43:17;16.19;92.26
68977;SHT31;56029;52.568;13.588;2023-07-31T01:45:43;16.20;92.59
68977;SHT31;56029;52.568;13.588;2023-07-31T01:48:08;16.24;92.18
68977;SHT31;56029;52.568;13.588;2023-07-31T01:50:34;16.29;91.96
68977;SHT31;56029;52.568;13.588;2023-07-31T01:52:59;16.34;92.04
68977;SHT31;56029;52.568;13.588;2023-07-31T01:55:25;16.31;91.93
68977;SHT31;56029;52.568;13.588;2023-07-31T01:57:51;16.34;92.27
68977;SHT31;56029;52.568;13.588;2023-07-31T02:00:18;16.29;92.86
68977;SHT31;56029;52.568;13.588;2023-07-31T02:02:43;16.34;92.29
68977;SHT31;56029;52.568;13.588;2023-07-31T02:05:09;16.34;92.09
68977;SHT31;56029;52.568;13.588;2023-07-31T02:07:34;16.36;92.30
68977;SHT31;56029;52.568;13.588;2023-07-31T02:10:00;16.40;92.52
68977;SHT31;56029;52.568;13.588;2023-07-31T02:12:25;16.37;93.18
68977;SHT31;56029;52.568;13.588;2023-07-31T02:14:51;16.40;92.87
68977;SHT31;56029;52.568;13.588;2023-07-31T02:17:16;16.43;92.93
68977;SHT31;56029;52.568;13.588;2023-07-31T02:19:42;16.46;92.89
68977;SHT31;56029;52.568;13.588;2023-07-31T02:22:07;16.46;92.77
68977;SHT31;56029;52.568;13.588;2023-07-31T02:24:33;16.44;92.81
68977;SHT31;56029;52.568;13.588;2023-07-31T02:26:58;16.47;92.83
68977;SHT31;56029;52.568;13.588;2023-07-31T02:29:24;16.49;93.02
68977;SHT31;56029;52.568;13.588;2023-07-31T02:31:50;16.50;92.91
68977;SHT31;56029;52.568;13.588;2023-07-31T02:34:15;16.39;93.46
68977;SHT31;56029;52.568;13.588;2023-07-31T02:36:41;16.34;93.86
68977;SHT31;56029;52.568;13.588;2023-07-31T02:39:06;16.39;93.15
68977;SHT31;56029;52.568;13.588;2023-07-31T02:41:32;16.40;93.63
68977;SHT31;56029;52.568;13.588;2023-07-31T02:43:57;16.43;93.44
68977;SHT31;56029;52.568;13.588;2023-07-31T02:46:23;16.44;93.36
68977;SHT31;56029;52.568;13.588;2023-07-31T02:48:50;16.50;93.41
68977;SHT31;56029;52.568;13.588;2023-07-31T02:51:16;16.47;93.44
68977;SHT31;56029;52.568;13.588;2023-07-31T02:53:42;16.47;93.20
68977;SHT31;56029;52.568;13.588;2023-07-31T02:56:08;16.44;93.15
68977;SHT31;56029;52.568;13.588;2023-07-31T02:58:33;16.47;93.37
68977;SHT31;56029;52.568;13.588;2023-07-31T03:00:59;16.46;93.21
68977;SHT31;56029;52.568;13.588;2023-07-31T03:03:24;16.50;93.27
68977;SHT31;56029;52.568;13.588;2023-07-31T03:05:50;16.49;93.42
68977;SHT31;56029;52.568;13.588;2023-07-31T03:08:15;16.46;93.67
68977;SHT31;56029;52.568;13.588;2023-07-31T03:10:41;16.50;93.68
68977;SHT31;56029;52.568;13.588;2023-07-31T03:13:06;16.47;93.68
68977;SHT31;56029;52.568;13.588;2023-07-31T03:15:32;16.49;93.61
68977;SHT31;56029;52.568;13.588;2023-07-31T03:17:58;16.53;93.53
68977;SHT31;56029;52.568;13.588;2023-07-31T03:20:23;16.49;93.69
68977;SHT31;56029;52.568;13.588;2023-07-31T03:22:49;16.47;93.74
68977;SHT31;56029;52.568;13.588;2023-07-31T03:25:14;16.49;93.85
68977;SHT31;56029;52.568;13.588;2023-07-31T03:27:40;16.50;94.07
68977;SHT31;56029;52.568;13.588;2023-07-31T03:30:06;16.49;93.90
68977;SHT31;56029;52.568;13.588;2023-07-31T03:32:32;16.46;93.89
68977;SHT31;56029;52.568;13.588;2023-07-31T03:34:58;16.33;94.36
68977;SHT31;56029;52.568;13.588;2023-07-31T03:37:23;16.34;94.85
68977;SHT31;56029;52.568;13.588;2023-07-31T03:39:49;16.44;94.42
68977;SHT31;56029;52.568;13.588;2023-07-31T03:42:14;16.37;94.25
68977;SHT31;56029;52.568;13.588;2023-07-31T03:44:40;16.44;94.38
68977;SHT31;56029;52.568;13.588;2023-07-31T03:47:06;16.37;94.71
68977;SHT31;56029;52.568;13.588;2023-07-31T03:49:31;16.40;94.24
68977;SHT31;56029;52.568;13.588;2023-07-31T03:51:57;16.44;94.16
68977;SHT31;56029;52.568;13.588;2023-07-31T03:54:22;16.46;94.23
68977;SHT31;56029;52.568;13.588;2023-07-31T03:56:49;16.46;94.52
68977;SHT31;56029;52.568;13.588;2023-07-31T03:59:14;16.51;94.30
68977;SHT31;56029;52.568;13.588;2023-07-31T04:01:40;16.51;94.56
68977;SHT31;56029;52.568;13.588;2023-07-31T04:04:05;16.44;94.46
68977;SHT31;56029;52.568;13.588;2023-07-31T04:06:31;16.50;94.48
68977;SHT31;56029;52.568;13.588;2023-07-31T04:08:57;16.47;94.50
68977;SHT31;56029;52.568;13.588;2023-07-31T04:11:22;16.41;94.14
68977;SHT31;56029;52.568;13.588;2023-07-31T04:13:48;16.41;94.70
68977;SHT31;56029;52.568;13.588;2023-07-31T04:16:13;16.41;94.62
68977;SHT31;56029;52.568;13.588;2023-07-31T04:18:39;16.47;94.64
68977;SHT31;56029;52.568;13.588;2023-07-31T04:21:04;16.50;94.45
68977;SHT31;56029;52.568;13.588;2023-07-31T04:23:30;16.49;94.62
68977;SHT31;56029;52.568;13.588;2023-07-31T04:25:56;16.54;94.38
68977;SHT31;56029;52.568;13.588;2023-07-31T04:28:21;16.56;94.32
68977;SHT31;56029;52.568;13.588;2023-07-31T04:30:47;16.60;94.20
68977;SHT31;56029;52.568;13.588;2023-07-31T04:33:12;16.64;94.18
68977;SHT31;56029;52.568;13.588;2023-07-31T04:35:38;16.71;94.10
68977;SHT31;56029;52.568;13.588;2023-07-31T04:38:04;16.70;93.89
68977;SHT31;56029;52.568;13.588;2023-07-31T04:40:29;16.67;94.27
68977;SHT31;56029;52.568;13.588;2023-07-31T04:42:55;16.71;93.68
68977;SHT31;56029;52.568;13.588;2023-07-31T04:45:20;16.72;94.24
68977;SHT31;56029;52.568;13.588;2023-07-31T04:47:46;16.78;93.80
68977;SHT31;56029;52.568;13.588;2023-07-31T04:50:11;16.79;93.81
68977;SHT31;56029;52.568;13.588;2023-07-31T04:52:37;16.81;94.12
68977;SHT31;56029;52.568;13.588;2023-07-31T04:55:03;16.81;93.67
68977;SHT31;56029;52.568;13.588;2023-07-31T04:57:28;16.88;93.83
68977;SHT31;56029;52.568;13.588;2023-07-31T04:59:54;16.89;94.25
68977;SHT31;56029;52.568;13.588;2023-07-31T05:02:19;16.94;93.73
68977;SHT31;56029;52.568;13.588;2023-07-31T05:04:45;16.87;94.13
68977;SHT31;56029;52.568;13.588;2023-07-31T05:07:10;16.85;93.69
68977;SHT31;56029;52.568;13.588;2023-07-31T05:09:36;16.85;93.56
68977;SHT31;56029;52.568;13.588;2023-07-31T05:12:01;16.88;93.86
68977;SHT31;56029;52.568;13.588;2023-07-31T05:14:27;16.89;93.73
68977;SHT31;56029;52.568;13.588;2023-07-31T05:16:53;16.98;93.75
68977;SHT31;56029;52.568;13.588;2023-07-31T05:19:18;17.01;93.93
68977;SHT31;56029;52.568;13.588;2023-07-31T05:21:44;17.02;93.33
68977;SHT31;56029;52.568;13.588;2023-07-31T05:24:10;17.12;93.27
68977;SHT31;56029;52.568;13.588;2023-07-31T05:26:35;17.15;93.72
68977;SHT31;56029;52.568;13.588;2023-07-31T05:29:01;17.09;93.08
68977;SHT31;56029;52.568;13.588;2023-07-31T05:31:27;17.16;93.05
68977;SHT31;56029;52.568;13.588;2023-07-31T05:33:52;17.20;93.62
68977;SHT31;56029;52.568;13.588;2023-07-31T05:36:18;17.29;93.36
68977;SHT31;56029;52.568;13.588;2023-07-31T05:38:44;17.36;93.66
68977;SHT31;56029;52.568;13.588;2023-07-31T05:41:11;17.30;92.18
68977;SHT31;56029;52.568;13.588;2023-07-31T05:43:37;17.43;92.52
68977;SHT31;56029;52.568;13.588;2023-07-31T05:46:02;17.49;92.26
68977;SHT31;56029;52.568;13.588;2023-07-31T05:48:28;17.36;92.55
68977;SHT31;56029;52.568;13.588;2023-07-31T05:50:53;17.49;91.94
68977;SHT31;56029;52.568;13.588;2023-07-31T05:53:19;17.50;92.77
68977;SHT31;56029;52.568;13.588;2023-07-31T05:55:44;17.50;92.63
68977;SHT31;56029;52.568;13.588;2023-07-31T05:58:10;17.43;93.13
68977;SHT31;56029;52.568;13.588;2023-07-31T06:00:36;17.47;92.51
68977;SHT31;56029;52.568;13.588;2023-07-31T06:03:01;17.45;92.40
68977;SHT31;56029;52.568;13.588;2023-07-31T06:05:27;17.49;92.53
68977;SHT31;56029;52.568;13.588;2023-07-31T06:07:55;17.40;92.04
68977;SHT31;56029;52.568;13.588;2023-07-31T06:10:21;17.46;92.02
68977;SHT31;56029;52.568;13.588;2023-07-31T06:12:47;17.47;91.71
68977;SHT31;56029;52.568;13.588;2023-07-31T06:15:12;17.53;92.03
68977;SHT31;56029;52.568;13.588;2023-07-31T06:17:38;17.54;92.30
68977;SHT31;56029;52.568;13.588;2023-07-31T06:20:03;17.42;93.07
68977;SHT31;56029;52.568;13.588;2023-07-31T06:22:32;17.50;92.70
68977;SHT31;56029;52.568;13.588;2023-07-31T06:24:58;17.60;92.24
68977;SHT31;56029;52.568;13.588;2023-07-31T06:27:24;17.57;92.57
68977;SHT31;56029;52.568;13.588;2023-07-31T06:29:49;17.62;92.24
68977;SHT31;56029;52.568;13.588;2023-07-31T06:32:15;17.74;91.89
68977;SHT31;56029;52.568;13.588;2023-07-31T06:34:40;17.73;92.68
68977;SHT31;56029;52.568;13.588;2023-07-31T06:37:06;17.86;92.01
68977;SHT31;56029;52.568;13.588;2023-07-31T06:39:32;18.01;91.37
68977;SHT31;56029;52.568;13.588;2023-07-31T06:41:57;17.91;91.98
68977;SHT31;56029;52.568;13.588;2023-07-31T06:44:23;17.87;91.29
68977;SHT31;56029;52.568;13.588;2023-07-31T06:46:48;17.95;92.08
68977;SHT31;56029;52.568;13.588;2023-07-31T06:49:14;18.05;91.79
68977;SHT31;56029;52.568;13.588;2023-07-31T06:51:41;18.00;90.79
68977;SHT31;56029;52.568;13.588;2023-07-31T06:54:08;18.15;91.88
68977;SHT31;56029;52.568;13.588;2023-07-31T06:56:33;18.11;92.21
68977;SHT31;56029;52.568;13.588;2023-07-31T06:58:59;18.14;90.97
68977;SHT31;56029;52.568;13.588;2023-07-31T07:01:24;18.09;91.36
68977;SHT31;56029;52.568;13.588;2023-07-31T07:03:50;18.09;91.84
68977;SHT31;56029;52.568;13.588;2023-07-31T07:06:18;18.28;90.95
68977;SHT31;56029;52.568;13.588;2023-07-31T07:08:44;18.15;91.51
68977;SHT31;56029;52.568;13.588;2023-07-31T07:11:10;18.26;91.28
68977;SHT31;56029;52.568;13.588;2023-07-31T07:13:35;18.16;91.56
68977;SHT31;56029;52.568;13.588;2023-07-31T07:16:01;18.11;91.15
68977;SHT31;56029;52.568;13.588;2023-07-31T07:18:26;18.09;90.36
68977;SHT31;56029;52.568;13.588;2023-07-31T07:20:53;18.02;91.16
68977;SHT31;56029;52.568;13.588;2023-07-31T07:23:19;17.97;90.20
68977;SHT31;56029;52.568;13.588;2023-07-31T07:25:46;17.70;91.78
68977;SHT31;56029;52.568;13.588;2023-07-31T07:28:11;17.71;91.87
68977;SHT31;56029;52.568;13.588;2023-07-31T07:30:37;17.78;91.40
68977;SHT31;56029;52.568;13.588;2023-07-31T07:33:02;17.97;92.01
68977;SHT31;56029;52.568;13.588;2023-07-31T07:35:28;18.04;91.61
68977;SHT31;56029;52.568;13.588;2023-07-31T07:37:54;18.08;91.87
68977;SHT31;56029;52.568;13.588;2023-07-31T07:40:20;18.15;91.78
68977;SHT31;56029;52.568;13.588;2023-07-31T07:42:46;18.34;91.17
68977;SHT31;56029;52.568;13.588;2023-07-31T07:45:12;18.45;90.70
68977;SHT31;56029;52.568;13.588;2023-07-31T07:47:40;18.51;90.28
68977;SHT31;56029;52.568;13.588;2023-07-31T07:50:06;18.89;89.99
68977;SHT31;56029;52.568;13.588;2023-07-31T07:52:32;18.83;89.02
68977;SHT31;56029;52.568;13.588;2023-07-31T07:54:57;18.97;88.83
68977;SHT31;56029;52.568;13.588;2023-07-31T07:57:23;19.13;88.43
68977;SHT31;56029;52.568;13.588;2023-07-31T07:59:48;19.41;88.58
68977;SHT31;56029;52.568;13.588;2023-07-31T08:02:14;19.27;87.54
68977;SHT31;56029;52.568;13.588;2023-07-31T08:04:39;19.15;88.14
68977;SHT31;56029;52.568;13.588;2023-07-31T08:07:05;19.11;88.26
68977;SHT31;56029;52.568;13.588;2023-07-31T08:09:30;18.84;89.24
68977;SHT31;56029;52.568;13.588;2023-07-31T08:11:56;18.94;89.09
68977;SHT31;56029;52.568;13.588;2023-07-31T08:14:27;18.73;88.93
68977;SHT31;56029;52.568;13.588;2023-07-31T08:16:53;18.93;88.81
68977;SHT31;56029;52.568;13.588;2023-07-31T08:19:18;18.89;88.18
68977;SHT31;56029;52.568;13.588;2023-07-31T08:21:44;19.03;88.63
68977;SHT31;56029;52.568;13.588;2023-07-31T08:24:10;19.23;88.18
68977;SHT31;56029;52.568;13.588;2023-07-31T08:26:35;19.34;87.11
68977;SHT31;56029;52.568;13.588;2023-07-31T08:29:01;19.44;86.58
68977;SHT31;56029;52.568;13.588;2023-07-31T08:31:26;19.72;87.19
68977;SHT31;56029;52.568;13.588;2023-07-31T08:33:52;19.85;86.26
68977;SHT31;56029;52.568;13.588;2023-07-31T08:36:17;19.75;86.21
68977;SHT31;56029;52.568;13.588;2023-07-31T08:38:45;19.58;86.17
68977;SHT31;56029;52.568;13.588;2023-07-31T08:41:11;19.21;87.71
68977;SHT31;56029;52.568;13.588;2023-07-31T08:43:38;19.11;88.22
68977;SHT31;56029;52.568;13.588;2023-07-31T08:46:04;18.96;88.90
68977;SHT31;56029;52.568;13.588;2023-07-31T08:48:31;18.93;88.66
68977;SHT31;56029;52.568;13.588;2023-07-31T08:50:56;18.94;89.12
68977;SHT31;56029;52.568;13.588;2023-07-31T08:53:22;18.94;88.75
68977;SHT31;56029;52.568;13.588;2023-07-31T08:55:48;19.06;88.14
68977;SHT31;56029;52.568;13.588;2023-07-31T08:58:14;19.03;88.74
68977;SHT31;56029;52.568;13.588;2023-07-31T09:00:41;18.84;88.98
68977;SHT31;56029;52.568;13.588;2023-07-31T09:03:13;18.77;89.70
68977;SHT31;56029;52.568;13.588;2023-07-31T09:05:42;18.76;89.74
68977;SHT31;56029;52.568;13.588;2023-07-31T09:08:09;18.74;90.54
68977;SHT31;56029;52.568;13.588;2023-07-31T09:10:40;19.13;89.90
68977;SHT31;56029;52.568;13.588;2023-07-31T09:13:06;19.27;89.56
68977;SHT31;56029;52.568;13.588;2023-07-31T09:15:32;19.39;89.02
68977;SHT31;56029;52.568;13.588;2023-07-31T09:18:00;19.21;88.53
68977;SHT31;56029;52.568;13.588;2023-07-31T09:20:28;19.50;89.45
68977;SHT31;56029;52.568;13.588;2023-07-31T09:22:54;19.78;87.41
68977;SHT31;56029;52.568;13.588;2023-07-31T09:25:24;19.61;87.11
68977;SHT31;56029;52.568;13.588;2023-07-31T09:27:58;19.61;86.33
68977;SHT31;56029;52.568;13.588;2023-07-31T09:30:23;19.94;87.13
68977;SHT31;56029;52.568;13.588;2023-07-31T09:32:51;20.10;86.23
68977;SHT31;56029;52.568;13.588;2023-07-31T09:35:32;20.23;85.25
68977;SHT31;56029;52.568;13.588;2023-07-31T09:38:00;20.29;86.04
68977;SHT31;56029;52.568;13.588;2023-07-31T09:40:31;19.94;87.20
68977;SHT31;56029;52.568;13.588;2023-07-31T09:43:01;19.76;87.53
68977;SHT31;56029;52.568;13.588;2023-07-31T09:45:27;19.39;89.81
68977;SHT31;56029;52.568;13.588;2023-07-31T09:47:54;19.23;90.14
68977;SHT31;56029;52.568;13.588;2023-07-31T09:50:21;19.24;90.42
68977;SHT31;56029;52.568;13.588;2023-07-31T09:52:47;19.23;89.73
68977;SHT31;56029;52.568;13.588;2023-07-31T09:55:12;19.13;90.58
68977;SHT31;56029;52.568;13.588;2023-07-31T09:57:40;18.99;90.58
68977;SHT31;56029;52.568;13.588;2023-07-31T10:00:07;18.65;91.17
68977;SHT31;56029;52.568;13.588;2023-07-31T10:02:36;18.63;91.39
68977;SHT31;56029;52.568;13.588;2023-07-31T10:05:03;18.72;91.04
68977;SHT31;56029;52.568;13.588;2023-07-31T10:07:30;18.90;90.96
68977;SHT31;56029;52.568;13.588;2023-07-31T10:10:00;19.03;90.42
68977;SHT31;56029;52.568;13.588;2023-07-31T10:12:27;19.24;90.17
68977;SHT31;56029;52.568;13.588;2023-07-31T10:14:56;19.35;90.64
68977;SHT31;56029;52.568;13.588;2023-07-31T10:17:25;19.32;90.04
68977;SHT31;56029;52.568;13.588;2023-07-31T10:19:51;19.63;89.18
68977;SHT31;56029;52.568;13.588;2023-07-31T10:22:18;19.96;87.75
68977;SHT31;56029;52.568;13.588;2023-07-31T10:24:45;19.87;88.07
68977;SHT31;56029;52.568;13.588;2023-07-31T10:27:11;19.69;88.40
68977;SHT31;56029;52.568;13.588;2023-07-31T10:29:41;19.51;87.83
68977;SHT31;56029;52.568;13.588;2023-07-31T10:32:09;19.62;87.92
68977;SHT31;56029;52.568;13.588;2023-07-31T10:34:38;19.54;87.68
68977;SHT31;56029;52.568;13.588;2023-07-31T10:37:24;19.35;88.50
68977;SHT31;56029;52.568;13.588;2023-07-31T10:40:06;19.41;88.50
68977;SHT31;56029;52.568;13.588;2023-07-31T10:42:35;19.35;89.10
68977;SHT31;56029;52.568;13.588;2023-07-31T10:45:06;19.32;89.41
68977;SHT31;56029;52.568;13.588;2023-07-31T10:47:45;19.24;90.17
68977;SHT31;56029;52.568;13.588;2023-07-31T10:50:19;19.45;89.94
68977;SHT31;56029;52.568;13.588;2023-07-31T10:52:53;19.62;89.67
68977;SHT31;56029;52.568;13.588;2023-07-31T10:55:26;19.78;89.97
68977;SHT31;56029;52.568;13.588;2023-07-31T10:57:53;20.02;88.42
68977;SHT31;56029;52.568;13.588;2023-07-31T11:00:29;20.10;87.49
68977;SHT31;56029;52.568;13.588;2023-07-31T11:03:09;20.58;87.27
68977;SHT31;56029;52.568;13.588;2023-07-31T11:05:45;20.75;86.80
68977;SHT31;56029;52.568;13.588;2023-07-31T11:08:16;20.94;87.09
68977;SHT31;56029;52.568;13.588;2023-07-31T11:10:43;20.98;85.39
68977;SHT31;56029;52.568;13.588;2023-07-31T11:13:10;21.32;85.22
68977;SHT31;56029;52.568;13.588;2023-07-31T11:15:35;21.16;83.88
68977;SHT31;56029;52.568;13.588;2023-07-31T11:18:02;21.47;83.82
68977;SHT31;56029;52.568;13.588;2023-07-31T11:20:32;21.30;82.95
68977;SHT31;56029;52.568;13.588;2023-07-31T11:23:00;21.32;83.42
68977;SHT31;56029;52.568;13.588;2023-07-31T11:25:26;20.94;83.12
68977;SHT31;56029;52.568;13.588;2023-07-31T11:27:52;21.12;83.60
68977;SHT31;56029;52.568;13.588;2023-07-31T11:30:19;21.23;83.54
68977;SHT31;56029;52.568;13.588;2023-07-31T11:32:45;21.35;82.09
68977;SHT31;56029;52.568;13.588;2023-07-31T11:35:14;21.36;81.06
68977;SHT31;56029;52.568;13.588;2023-07-31T11:37:41;21.35;80.81
68977;SHT31;56029;52.568;13.588;2023-07-31T11:40:07;21.58;81.17
68977;SHT31;56029;52.568;13.588;2023-07-31T11:42:37;21.56;80.46
68977;SHT31;56029;52.568;13.588;2023-07-31T11:45:04;21.56;78.93
68977;SHT31;56029;52.568;13.588;2023-07-31T11:47:32;21.43;78.51
68977;SHT31;56029;52.568;13.588;2023-07-31T11:50:00;21.09;79.14
68977;SHT31;56029;52.568;13.588;2023-07-31T11:52:26;20.99;78.97
68977;SHT31;56029;52.568;13.588;2023-07-31T11:54:51;21.00;78.52
68977;SHT31;56029;52.568;13.588;2023-07-31T11:57:18;20.87;78.51
68977;SHT31;56029;52.568;13.588;2023-07-31T11:59:45;20.91;79.62
68977;SHT31;56029;52.568;13.588;2023-07-31T12:02:10;21.00;79.18
68977;SHT31;56029;52.568;13.588;2023-07-31T12:04:36;20.99;78.80
68977;SHT31;56029;52.568;13.588;2023-07-31T12:07:02;21.10;78.03
68977;SHT31;56029;52.568;13.588;2023-07-31T12:09:28;21.20;77.87
68977;SHT31;56029;52.568;13.588;2023-07-31T12:11:53;21.23;77.02
68977;SHT31;56029;52.568;13.588;2023-07-31T12:14:29;21.10;77.35
68977;SHT31;56029;52.568;13.588;2023-07-31T12:16:56;21.15;76.56
68977;SHT31;56029;52.568;13.588;2023-07-31T12:19:22;21.08;76.68
68977;SHT31;56029;52.568;13.588;2023-07-31T12:21:49;21.10;77.16
68977;SHT31;56029;52.568;13.588;2023-07-31T12:24:14;21.23;77.47
68977;SHT31;56029;52.568;13.588;2023-07-31T12:26:40;21.25;77.92
68977;SHT31;56029;52.568;13.588;2023-07-31T12:29:07;21.35;76.63
68977;SHT31;56029;52.568;13.588;2023-07-31T12:31:34;21.30;77.29
68977;SHT31;56029;52.568;13.588;2023-07-31T12:33:59;21.42;77.70
68977;SHT31;56029;52.568;13.588;2023-07-31T12:36:25;21.43;76.93
68977;SHT31;56029;52.568;13.588;2023-07-31T12:38:51;21.60;77.16
68977;SHT31;56029;52.568;13.588;2023-07-31T12:41:17;21.51;77.43
68977;SHT31;56029;52.568;13.588;2023-07-31T12:43:44;21.43;76.42
68977;SHT31;56029;52.568;13.588;2023-07-31T12:46:10;21.26;77.30
68977;SHT31;56029;52.568;13.588;2023-07-31T12:48:37;21.20;76.82
68977;SHT31;56029;52.568;13.588;2023-07-31T12:51:04;21.39;76.17
68977;SHT31;56029;52.568;13.588;2023-07-31T12:53:30;21.61;75.41
68977;SHT31;56029;52.568;13.588;2023-07-31T12:55:56;21.81;75.74
68977;SHT31;56029;52.568;13.588;2023-07-31T12:58:22;22.19;75.37
68977;SHT31;56029;52.568;13.588;2023-07-31T13:00:47;22.06;75.25
68977;SHT31;56029;52.568;13.588;2023-07-31T13:03:13;22.25;75.95
68977;SHT31;56029;52.568;13.588;2023-07-31T13:05:38;22.01;74.84
68977;SHT31;56029;52.568;13.588;2023-07-31T13:08:04;21.77;75.70
68977;SHT31;56029;52.568;13.588;2023-07-31T13:10:29;21.75;76.44
68977;SHT31;56029;52.568;13.588;2023-07-31T13:12:56;21.93;76.49
68977;SHT31;56029;52.568;13.588;2023-07-31T13:15:22;21.71;76.49
68977;SHT31;56029;52.568;13.588;2023-07-31T13:17:47;21.61;75.74
68977;SHT31;56029;52.568;13.588;2023-07-31T13:20:13;21.60;76.30
68977;SHT31;56029;52.568;13.588;2023-07-31T13:22:38;21.64;76.88
68977;SHT31;56029;52.568;13.588;2023-07-31T13:25:05;21.15;77.94
68977;SHT31;56029;52.568;13.588;2023-07-31T13:27:30;20.98;78.87
68977;SHT31;56029;52.568;13.588;2023-07-31T13:29:56;20.78;78.06
68977;SHT31;56029;52.568;13.588;2023-07-31T13:32:21;20.96;77.67
68977;SHT31;56029;52.568;13.588;2023-07-31T13:34:48;21.05;77.93
68977;SHT31;56029;52.568;13.588;2023-07-31T13:37:14;21.23;77.20
68977;SHT31;56029;52.568;13.588;2023-07-31T13:39:41;21.49;77.46
68977;SHT31;56029;52.568;13.588;2023-07-31T13:42:07;21.66;76.41
68977;SHT31;56029;52.568;13.588;2023-07-31T13:44:34;21.71;77.23
68977;SHT31;56029;52.568;13.588;2023-07-31T13:47:00;22.04;77.41
68977;SHT31;56029;52.568;13.588;2023-07-31T13:49:26;21.78;76.43
68977;SHT31;56029;52.568;13.588;2023-07-31T13:51:52;21.81;76.85
68977;SHT31;56029;52.568;13.588;2023-07-31T13:54:17;21.95;76.69
68977;SHT31;56029;52.568;13.588;2023-07-31T13:56:43;22.11;76.61
68977;SHT31;56029;52.568;13.588;2023-07-31T13:59:10;22.28;74.88
68977;SHT31;56029;52.568;13.588;2023-07-31T14:01:36;22.41;74.85
68977;SHT31;56029;52.568;13.588;2023-07-31T14:04:01;22.45;74.56
68977;SHT31;56029;52.568;13.588;2023-07-31T14:06:27;22.56;74.58
68977;SHT31;56029;52.568;13.588;2023-07-31T14:08:53;22.84;74.04
68977;SHT31;56029;52.568;13.588;2023-07-31T14:11:18;22.94;73.93
68977;SHT31;56029;52.568;13.588;2023-07-31T14:13:44;22.87;74.27
68977;SHT31;56029;52.568;13.588;2023-07-31T14:16:10;22.77;73.92
68977;SHT31;56029;52.568;13.588;2023-07-31T14:18:35;22.91;74.11
68977;SHT31;56029;52.568;13.588;2023-07-31T14:21:01;22.80;74.45
68977;SHT31;56029;52.568;13.588;2023-07-31T14:23:26;22.70;74.19
68977;SHT31;56029;52.568;13.588;2023-07-31T14:25:52;22.72;74.13
68977;SHT31;56029;52.568;13.588;2023-07-31T14:28:17;22.64;74.76
68977;SHT31;56029;52.568;13.588;2023-07-31T14:30:43;22.74;74.81
68977;SHT31;56029;52.568;13.588;2023-07-31T14:33:08;22.63;74.81
68977;SHT31;56029;52.568;13.588;2023-07-31T14:35:34;22.57;74.09
68977;SHT31;56029;52.568;13.588;2023-07-31T14:38:01;22.21;74.80
68977;SHT31;56029;52.568;13.588;2023-07-31T14:40:27;22.18;74.47
68977;SHT31;56029;52.568;13.588;2023-07-31T14:42:53;22.22;75.47
68977;SHT31;56029;52.568;13.588;2023-07-31T14:45:18;22.14;75.77
68977;SHT31;56029;52.568;13.588;2023-07-31T14:47:44;22.18;75.51
68977;SHT31;56029;52.568;13.588;2023-07-31T14:50:10;22.26;75.77
68977;SHT31;56029;52.568;13.588;2023-07-31T14:52:36;22.52;76.04
68977;SHT31;56029;52.568;13.588;2023-07-31T14:55:01;22.48;74.92
68977;SHT31;56029;52.568;13.588;2023-07-31T14:57:27;22.48;75.57
68977;SHT31;56029;52.568;13.588;2023-07-31T14:59:52;22.32;75.46
68977;SHT31;56029;52.568;13.588;2023-07-31T15:02:18;22.16;75.57
68977;SHT31;56029;52.568;13.588;2023-07-31T15:04:43;22.16;75.22
68977;SHT31;56029;52.568;13.588;2023-07-31T15:07:09;22.01;75.69
68977;SHT31;56029;52.568;13.588;2023-07-31T15:09:34;22.05;76.49
68977;SHT31;56029;52.568;13.588;2023-07-31T15:12:00;22.11;75.53
68977;SHT31;56029;52.568;13.588;2023-07-31T15:14:26;22.16;75.73